Time;durP1;ratioP1;P1;durP2;ratioP2;P2;SDS_P1;SDS_P2;PMS_P1;PMS_P2;Temp;Humidity;BMP_temperature;BMP_pressure;BME280_temperature;BME280_humidity;BME280_pressure;Samples;Min_cycle;Max_cycle;Signal;HPM_P1;HPM_P2
2023/07/30 00:02:19;;;;;;;3.20;2.70;;;;;;;18.17;100.00;96446.53;5057344;28;20213;-61
2023/07/30 00:04:45;;;;;;;2.85;2.65;;;;;;;18.15;100.00;96437.88;5058809;28;20211;-61
2023/07/30 00:07:12;;;;;;;3.60;3.30;;;;;;;18.15;100.00;96436.03;5057843;28;20207;-63
2023/07/30 00:09:38;;;;;;;3.85;2.83;;;;;;;18.12;100.00;96430.22;5057463;28;20515;-64
2023/07/30 00:12:06;;;;;;;3.38;2.92;;;;;;;18.13;100.00;96434.56;5057618;28;20650;-61
2023/07/30 00:14:32;;;;;;;3.72;2.83;;;;;;;18.12;100.00;96433.75;5055981;28;20215;-62
2023/07/30 00:16:59;;;;;;;2.83;2.63;;;;;;;18.15;100.00;96440.53;5057911;28;20195;-62
2023/07/30 00:19:27;;;;;;;3.60;3.30;;;;;;;18.12;100.00;96439.09;5058060;28;20528;-62
2023/07/30 00:21:53;;;;;;;3.42;3.22;;;;;;;18.10;100.00;96445.66;5056045;28;20211;-63
2023/07/30 00:24:20;;;;;;;3.00;2.80;;;;;;;18.10;100.00;96435.78;5056713;28;20255;-63
2023/07/30 00:26:46;;;;;;;5.28;2.92;;;;;;;18.11;100.00;96441.94;5041522;28;20265;-62
2023/07/30 00:29:13;;;;;;;3.50;3.08;;;;;;;18.10;100.00;96441.16;5035223;28;20219;-62
2023/07/30 00:31:39;;;;;;;3.05;2.85;;;;;;;18.12;100.00;96438.25;5034801;28;20231;-61
2023/07/30 00:34:05;;;;;;;3.38;3.17;;;;;;;18.15;100.00;96427.16;5043464;28;20211;-61
2023/07/30 00:36:33;;;;;;;3.22;2.95;;;;;;;18.13;100.00;96435.41;5044946;28;20211;-61
2023/07/30 00:39:00;;;;;;;3.13;2.92;;;;;;;18.16;100.00;96443.03;5034847;28;20234;-62
2023/07/30 00:41:26;;;;;;;3.28;2.97;;;;;;;18.17;100.00;96441.19;5034326;28;20573;-62
2023/07/30 00:43:52;;;;;;;3.40;3.17;;;;;;;18.17;100.00;96441.19;5034423;28;20207;-61
2023/07/30 00:46:19;;;;;;;4.18;3.42;;;;;;;18.17;100.00;96446.53;5034637;28;20203;-62
2023/07/30 00:48:46;;;;;;;3.78;3.55;;;;;;;18.14;100.00;96439.72;5034745;28;20218;-62
2023/07/30 00:51:14;;;;;;;3.70;3.40;;;;;;;18.16;100.00;96434.19;5034224;28;20672;-62
2023/07/30 00:53:42;;;;;;;3.25;2.95;;;;;;;18.18;100.00;96443.66;5034398;28;20631;-61
2023/07/30 00:56:08;;;;;;;3.22;3.03;;;;;;;18.19;100.00;96449.84;5034797;28;20552;-61
2023/07/30 00:58:34;;;;;;;3.85;3.58;;;;;;;18.21;100.00;96458.53;5034369;28;20574;-62
2023/07/30 01:01:01;;;;;;;3.67;3.40;;;;;;;18.26;100.00;96464.09;5034763;28;20519;-61
2023/07/30 01:03:27;;;;;;;6.13;3.78;;;;;;;18.30;100.00;96458.16;5034697;28;20218;-62
2023/07/30 01:05:54;;;;;;;6.30;4.20;;;;;;;18.35;100.00;96470.97;5034579;28;20211;-62
2023/07/30 01:08:21;;;;;;;3.95;3.65;;;;;;;18.40;100.00;96460.50;5036910;28;20216;-61
2023/07/30 01:10:50;;;;;;;3.65;3.42;;;;;;;18.45;100.00;96468.78;5040471;28;20222;-65
2023/07/30 01:13:16;;;;;;;3.95;3.38;;;;;;;18.50;100.00;96466.31;5054618;28;20231;-63
2023/07/30 01:15:43;;;;;;;4.35;3.95;;;;;;;18.53;100.00;96468.63;5049524;28;20215;-61
2023/07/30 01:18:10;;;;;;;4.10;3.70;;;;;;;18.54;100.00;96461.44;5045216;28;20530;-61
2023/07/30 01:20:36;;;;;;;4.07;3.78;;;;;;;18.61;100.00;96463.13;5044852;28;20640;-62
2023/07/30 01:23:04;;;;;;;3.83;3.53;;;;;;;18.65;100.00;96461.72;5037016;28;20257;-61
2023/07/30 01:25:33;;;;;;;3.70;3.50;;;;;;;18.68;100.00;96464.00;5037964;28;20254;-62
2023/07/30 01:28:02;;;;;;;4.28;3.83;;;;;;;18.69;100.00;96471.00;5038828;28;20203;-63
2023/07/30 01:30:30;;;;;;;4.22;3.70;;;;;;;18.69;100.00;96459.47;5042649;28;20217;-61
2023/07/30 01:32:57;;;;;;;4.07;3.78;;;;;;;18.72;100.00;96461.75;5045133;28;20238;-64
2023/07/30 01:35:27;;;;;;;3.78;3.58;;;;;;;18.73;100.00;96469.59;5054066;28;20215;-63
2023/07/30 01:37:54;;;;;;;4.68;4.07;;;;;;;18.72;100.00;96459.06;5043620;28;20257;-62
2023/07/30 01:40:24;;;;;;;3.80;3.60;;;;;;;18.72;100.00;96461.75;5038000;28;20219;-61
2023/07/30 01:42:51;;;;;;;4.15;3.85;;;;;;;18.68;100.00;96455.97;5037579;28;20204;-62
2023/07/30 01:45:17;;;;;;;4.28;3.97;;;;;;;18.70;100.00;96450.41;5037843;28;20266;-62
2023/07/30 01:47:43;;;;;;;4.35;4.05;;;;;;;18.66;100.00;96441.94;5037786;28;20621;-63
2023/07/30 01:50:13;;;;;;;5.85;3.90;;;;;;;18.64;100.00;96449.34;5050540;28;20556;-62
2023/07/30 01:52:40;;;;;;;4.18;3.88;;;;;;;18.60;100.00;96448.06;5037726;28;20242;-61
2023/07/30 01:55:07;;;;;;;4.32;3.97;;;;;;;18.55;100.00;96442.50;5037620;28;20212;-61
2023/07/30 01:57:35;;;;;;;4.60;4.30;;;;;;;18.54;100.00;96450.72;5037573;28;20212;-61
2023/07/30 02:00:02;;;;;;;4.35;3.95;;;;;;;18.52;100.00;96440.22;5037370;28;20219;-62
2023/07/30 02:02:29;;;;;;;4.20;3.90;;;;;;;18.45;100.00;96435.81;5051268;28;20199;-63
2023/07/30 02:04:55;;;;;;;3.97;3.75;;;;;;;18.36;100.00;96440.47;5046471;28;20221;-62
2023/07/30 02:07:22;;;;;;;6.13;3.65;;;;;;;18.30;100.00;96439.44;5042526;28;20215;-62
2023/07/30 02:09:48;;;;;;;5.43;3.70;;;;;;;18.29;100.00;96445.81;5037591;28;20207;-64
2023/07/30 02:12:15;;;;;;;5.25;3.90;;;;;;;18.26;100.00;96442.69;5037032;28;20239;-61
2023/07/30 02:14:45;;;;;;;3.40;3.20;;;;;;;18.19;100.00;96448.00;5045769;28;20218;-62
2023/07/30 02:17:11;;;;;;;4.10;3.75;;;;;;;18.14;100.00;96447.75;5052671;28;20258;-62
2023/07/30 02:19:37;;;;;;;6.30;3.88;;;;;;;18.11;100.00;96441.94;5059799;28;20238;-62
2023/07/30 02:22:04;;;;;;;8.00;4.00;;;;;;;18.08;100.00;96442.34;5044152;28;20203;-61
2023/07/30 02:24:31;;;;;;;5.50;4.05;;;;;;;18.02;100.00;96441.28;5043310;28;20287;-62
2023/07/30 02:26:57;;;;;;;4.45;3.65;;;;;;;18.00;100.00;96442.47;5039389;28;20199;-61
2023/07/30 02:29:25;;;;;;;4.32;3.92;;;;;;;17.96;100.00;96439.34;5037631;28;20223;-62
2023/07/30 02:31:52;;;;;;;4.00;3.70;;;;;;;17.94;100.00;96445.94;5037093;28;20302;-62
2023/07/30 02:34:19;;;;;;;4.47;3.92;;;;;;;17.90;100.00;96445.50;5037095;28;20207;-61
2023/07/30 02:36:45;;;;;;;5.38;3.67;;;;;;;17.90;100.00;96434.78;5042615;28;20208;-62
2023/07/30 02:39:12;;;;;;;5.03;4.22;;;;;;;17.84;100.00;96431.06;5047027;28;20207;-62
2023/07/30 02:41:38;;;;;;;4.43;3.92;;;;;;;17.84;100.00;96443.59;5039645;28;20227;-62
2023/07/30 02:44:05;;;;;;;4.32;3.92;;;;;;;17.77;100.00;96445.38;5037114;28;20212;-60
2023/07/30 02:46:31;;;;;;;4.40;3.97;;;;;;;17.79;100.00;96452.19;5036814;28;20223;-62
2023/07/30 02:48:59;;;;;;;4.47;4.18;;;;;;;17.76;100.00;96455.25;5037242;28;20208;-62
2023/07/30 02:51:25;;;;;;;3.83;3.55;;;;;;;17.78;100.00;96455.06;5036705;28;20216;-63
2023/07/30 02:53:53;;;;;;;4.30;4.00;;;;;;;17.76;100.00;96454.44;5037072;28;20203;-62
2023/07/30 02:56:20;;;;;;;3.65;3.22;;;;;;;17.80;100.00;96461.06;5050397;28;20212;-62
2023/07/30 02:58:46;;;;;;;4.65;4.25;;;;;;;17.83;100.00;96466.84;5037379;28;20216;-63
2023/07/30 03:01:12;;;;;;;4.00;3.70;;;;;;;17.85;100.00;96461.31;5038366;28;20218;-61
2023/07/30 03:03:39;;;;;;;4.15;3.72;;;;;;;17.90;100.00;96465.06;5037003;28;20218;-62
2023/07/30 03:06:07;;;;;;;4.97;3.50;;;;;;;17.94;100.00;96462.81;5037056;28;20215;-61
2023/07/30 03:08:35;;;;;;;4.25;3.75;;;;;;;17.99;100.00;96459.56;5048392;28;20215;-62
2023/07/30 03:11:02;;;;;;;4.00;3.60;;;;;;;18.00;100.00;96458.53;5037478;28;20235;-61
2023/07/30 03:13:29;;;;;;;4.20;3.90;;;;;;;18.02;100.00;96460.00;5035838;28;20232;-63
2023/07/30 03:15:56;;;;;;;5.20;3.95;;;;;;;18.05;100.00;96464.97;5036178;28;20216;-63
2023/07/30 03:18:22;;;;;;;4.20;3.90;;;;;;;18.08;100.00;96458.41;5042886;28;20268;-63
2023/07/30 03:20:49;;;;;;;3.85;3.55;;;;;;;18.12;100.00;96454.31;5049576;28;20219;-62
2023/07/30 03:23:16;;;;;;;3.83;3.53;;;;;;;18.13;100.00;96466.69;5037338;28;20208;-61
2023/07/30 03:25:43;;;;;;;3.40;3.10;;;;;;;18.16;100.00;96466.28;5036085;28;20235;-61
2023/07/30 03:28:09;;;;;;;4.18;3.78;;;;;;;18.16;100.00;96464.44;5035038;28;20211;-62
2023/07/30 03:30:36;;;;;;;4.00;3.70;;;;;;;18.18;100.00;96458.88;5035404;28;20547;-62
2023/07/30 03:33:02;;;;;;;4.00;3.65;;;;;;;18.19;100.00;96465.91;5035790;28;20231;-61
2023/07/30 03:35:28;;;;;;;3.65;3.42;;;;;;;18.16;100.00;96461.78;5035948;28;20208;-61
2023/07/30 03:37:56;;;;;;;4.10;3.75;;;;;;;18.09;100.00;96462.75;5054408;28;20215;-61
2023/07/30 03:40:24;;;;;;;4.00;3.70;;;;;;;18.10;100.00;96462.56;5043419;28;20548;-62
2023/07/30 03:42:51;;;;;;;4.00;3.70;;;;;;;18.13;100.00;96466.69;5041002;28;20211;-61
2023/07/30 03:45:17;;;;;;;5.40;3.30;;;;;;;18.12;100.00;96467.69;5035738;28;20208;-63
2023/07/30 03:47:43;;;;;;;4.20;3.67;;;;;;;18.10;100.00;96473.25;5035298;28;20641;-62
2023/07/30 03:50:10;;;;;;;4.97;3.90;;;;;;;18.13;100.00;96466.69;5035682;28;20266;-61
2023/07/30 03:52:37;;;;;;;3.90;3.60;;;;;;;18.11;100.00;96466.88;5035537;28;20235;-61
2023/07/30 03:55:04;;;;;;;4.45;4.05;;;;;;;18.14;100.00;96479.06;5035652;28;20207;-61
2023/07/30 03:57:32;;;;;;;3.88;3.67;;;;;;;18.14;100.00;96474.50;5034873;28;20208;-61
2023/07/30 03:59:58;;;;;;;3.80;3.55;;;;;;;18.15;100.00;96472.66;5035325;28;20238;-62
2023/07/30 04:02:24;;;;;;;4.60;4.15;;;;;;;18.17;100.00;96473.31;5035496;28;20211;-62
2023/07/30 04:04:51;;;;;;;3.90;3.60;;;;;;;18.16;100.00;96467.13;5035593;28;20204;-63
2023/07/30 04:07:18;;;;;;;4.18;3.88;;;;;;;18.12;100.00;96471.22;5035241;28;20207;-61
2023/07/30 04:09:44;;;;;;;4.70;4.05;;;;;;;18.13;100.00;96472.88;5036123;28;20546;-62
2023/07/30 04:12:12;;;;;;;4.65;4.10;;;;;;;18.16;100.00;96479.69;5034851;28;20238;-63
2023/07/30 04:14:40;;;;;;;4.97;3.97;;;;;;;18.19;100.00;96485.47;5035508;28;20547;-62
2023/07/30 04:17:06;;;;;;;3.90;3.63;;;;;;;18.21;100.00;96474.59;5041702;28;20214;-61
2023/07/30 04:19:33;;;;;;;4.10;3.70;;;;;;;18.23;100.00;96477.88;5037095;28;20644;-62
2023/07/30 04:21:59;;;;;;;4.57;4.18;;;;;;;18.27;100.00;96476.47;5039548;28;20231;-63
2023/07/30 04:24:26;;;;;;;4.22;3.92;;;;;;;18.28;100.00;96478.13;5035096;28;20235;-61
2023/07/30 04:26:52;;;;;;;4.30;4.00;;;;;;;18.30;100.00;96478.75;5035796;28;20222;-62
2023/07/30 04:29:19;;;;;;;4.30;3.90;;;;;;;18.30;100.00;96478.75;5051157;28;20208;-62
2023/07/30 04:31:47;;;;;;;4.40;3.88;;;;;;;18.33;100.00;96486.41;5042792;28;20211;-62
2023/07/30 04:34:13;;;;;;;4.50;4.10;;;;;;;18.35;100.00;96489.72;5038321;28;20231;-62
2023/07/30 04:36:40;;;;;;;4.20;3.90;;;;;;;18.34;100.00;96496.09;5039985;28;20618;-62
2023/07/30 04:39:08;;;;;;;4.18;3.78;;;;;;;18.37;100.00;96499.19;5035019;28;20212;-61
2023/07/30 04:41:34;;;;;;;4.10;3.80;;;;;;;18.38;100.00;96502.72;5034023;28;20212;-61
2023/07/30 04:44:01;;;;;;;3.75;3.50;;;;;;;18.41;100.00;96507.66;5034859;28;20203;-61
2023/07/30 04:46:30;;;;;;;4.40;3.97;;;;;;;18.45;100.00;96508.94;5034811;28;20235;-62
2023/07/30 04:49:00;;;;;;;4.38;4.07;;;;;;;18.47;100.00;96506.88;5034706;28;20212;-62
2023/07/30 04:51:27;;;;;;;3.95;3.75;;;;;;;18.50;100.00;96506.50;5034772;28;20208;-62
2023/07/30 04:53:54;;;;;;;4.72;4.18;;;;;;;18.51;100.00;96497.47;5034970;28;20538;-61
2023/07/30 04:56:20;;;;;;;4.20;3.85;;;;;;;18.53;100.00;96506.13;5034817;28;20218;-62
2023/07/30 04:58:47;;;;;;;4.20;3.88;;;;;;;18.56;100.00;96500.41;5036546;28;20281;-62
2023/07/30 05:01:13;;;;;;;4.63;4.22;;;;;;;18.56;100.00;96510.28;5039391;28;20208;-61
2023/07/30 05:03:42;;;;;;;4.03;3.72;;;;;;;18.59;100.00;96510.72;5037513;28;20200;-62
2023/07/30 05:06:10;;;;;;;4.07;3.78;;;;;;;18.62;100.00;96514.84;5039736;28;20209;-60
2023/07/30 05:08:36;;;;;;;3.55;3.35;;;;;;;18.62;100.00;96515.69;5042581;28;20211;-62
2023/07/30 05:11:02;;;;;;;4.22;3.92;;;;;;;18.60;100.00;96520.38;5034831;28;20212;-60
2023/07/30 05:13:29;;;;;;;4.50;4.18;;;;;;;18.64;100.00;96524.34;5046561;28;20258;-62
2023/07/30 05:15:55;;;;;;;3.90;3.70;;;;;;;18.66;100.00;96533.03;5037999;28;20208;-62
2023/07/30 05:18:22;;;;;;;4.32;4.03;;;;;;;18.71;100.00;96527.88;5044116;28;20207;-62
2023/07/30 05:20:49;;;;;;;4.03;3.72;;;;;;;18.79;100.00;96529.59;5051039;28;20291;-62
2023/07/30 05:23:16;;;;;;;4.72;4.32;;;;;;;18.85;100.00;96526.09;5035653;28;20231;-62
2023/07/30 05:25:43;;;;;;;3.50;3.30;;;;;;;18.87;100.00;96535.63;5034103;28;20236;-62
2023/07/30 05:28:09;;;;;;;4.00;3.70;;;;;;;18.91;100.00;96529.88;5033728;28;20212;-62
2023/07/30 05:30:37;;;;;;;3.83;3.63;;;;;;;18.92;100.00;96534.22;5034257;28;20576;-61
2023/07/30 05:33:05;;;;;;;3.80;3.50;;;;;;;18.88;100.00;96537.25;5034050;28;20231;-61
2023/07/30 05:35:33;;;;;;;3.40;3.20;;;;;;;18.96;100.00;96527.41;5034139;28;20211;-62
2023/07/30 05:37:59;;;;;;;3.80;3.50;;;;;;;19.03;100.00;96530.94;5039953;28;20211;-62
2023/07/30 05:40:27;;;;;;;3.67;3.38;;;;;;;19.03;100.00;96533.63;5046927;28;20294;-61
2023/07/30 05:42:53;;;;;;;3.80;3.50;;;;;;;19.07;100.00;96534.91;5033762;28;20227;-62
2023/07/30 05:45:20;;;;;;;3.75;3.45;;;;;;;19.12;100.00;96529.78;5034312;28;20211;-62
2023/07/30 05:47:46;;;;;;;3.55;3.25;;;;;;;19.15;100.00;96527.53;5033888;28;20580;-62
2023/07/30 05:50:13;;;;;;;3.85;3.55;;;;;;;19.18;100.00;96529.81;5034498;28;20203;-62
2023/07/30 05:52:39;;;;;;;3.50;3.30;;;;;;;19.22;100.00;96527.56;5034074;28;20207;-63
2023/07/30 05:55:06;;;;;;;3.20;3.00;;;;;;;19.27;100.00;96522.44;5037728;28;20219;-61
2023/07/30 05:57:34;;;;;;;3.15;2.92;;;;;;;19.34;100.00;96526.75;5037705;28;20204;-61
2023/07/30 06:00:03;;;;;;;3.40;3.20;;;;;;;19.36;100.00;96523.91;5037643;28;20216;-63
2023/07/30 06:02:29;;;;;;;3.28;3.08;;;;;;;19.41;100.00;96510.75;5037214;28;20908;-62
2023/07/30 06:04:56;;;;;;;3.75;3.45;;;;;;;19.46;100.00;96512.81;5037912;28;20291;-61
2023/07/30 06:07:22;;;;;;;3.28;3.05;;;;;;;19.64;100.00;96521.97;5037766;28;20628;-62
2023/07/30 06:09:49;;;;;;;3.20;3.00;;;;;;;19.73;100.00;96525.28;5050187;28;20211;-62
2023/07/30 06:12:15;;;;;;;3.22;3.03;;;;;;;19.95;100.00;96531.31;5036895;28;20212;-61
2023/07/30 06:14:43;;;;;;;3.10;2.90;;;;;;;20.17;100.00;96533.63;5037178;28;20236;-62
2023/07/30 06:17:09;;;;;;;3.33;3.08;;;;;;;20.25;100.00;96540.66;5046041;28;20238;-62
2023/07/30 06:19:35;;;;;;;2.60;2.40;;;;;;;20.22;100.00;96536.53;5052162;28;20211;-62
2023/07/30 06:22:02;;;;;;;2.75;2.50;;;;;;;20.19;100.00;96546.84;5043250;28;20212;-61
2023/07/30 06:24:28;;;;;;;2.50;2.40;;;;;;;20.18;100.00;96550.56;5038979;28;20615;-63
2023/07/30 06:26:55;;;;;;;2.60;2.40;;;;;;;20.10;100.00;96556.13;5039751;28;20253;-61
2023/07/30 06:29:21;;;;;;;2.70;2.50;;;;;;;20.14;100.00;96568.09;5057124;28;20214;-62
2023/07/30 06:31:49;;;;;;;3.55;2.60;;;;;;;20.22;100.00;96567.91;5055155;28;20207;-62
2023/07/30 06:34:15;;;;;;;3.35;2.25;;;;;;;20.54;100.00;96569.00;5057117;28;20227;-61
2023/07/30 06:36:42;;;;;;;3.10;2.33;;;;;;;20.88;100.00;96568.75;5059102;28;20213;-62
2023/07/30 06:39:08;;;;;;;2.70;2.50;;;;;;;21.19;100.00;96578.84;5077429;28;20210;-63
2023/07/30 06:41:35;;;;;;;2.25;2.13;;;;;;;21.29;100.00;96573.88;5067636;28;20219;-61
2023/07/30 06:44:01;;;;;;;2.05;1.90;;;;;;;21.29;100.00;96579.28;5052575;28;20207;-62
2023/07/30 06:46:27;;;;;;;2.63;2.40;;;;;;;21.53;100.00;96583.13;5056703;28;20223;-63
2023/07/30 06:48:56;;;;;;;2.22;2.03;;;;;;;21.69;100.00;96583.44;5056742;28;20207;-61
2023/07/30 06:51:25;;;;;;;2.58;2.25;;;;;;;21.80;100.00;96590.84;5056516;28;20207;-61
2023/07/30 06:53:51;;;;;;;3.17;1.60;;;;;;;22.03;100.00;96590.38;5056278;28;20238;-61
2023/07/30 06:56:18;;;;;;;2.58;2.33;;;;;;;22.14;100.00;96591.56;5055802;28;20211;-61
2023/07/30 06:58:44;;;;;;;1.65;1.55;;;;;;;22.44;100.00;96591.75;5056338;28;20210;-62
2023/07/30 07:01:11;;;;;;;1.85;1.80;;;;;;;22.57;100.00;96589.78;5055148;28;20224;-62
2023/07/30 07:03:37;;;;;;;1.98;1.88;;;;;;;22.56;98.31;96580.06;5056139;28;20203;-61
2023/07/30 07:06:05;;;;;;;2.45;2.00;;;;;;;22.56;97.67;96588.16;5055172;28;20207;-61
2023/07/30 07:08:32;;;;;;;2.10;2.00;;;;;;;22.46;100.00;96585.09;5056335;28;20583;-62
2023/07/30 07:10:58;;;;;;;1.83;1.70;;;;;;;22.69;100.00;96585.38;5052549;28;20218;-63
2023/07/30 07:13:25;;;;;;;2.03;1.92;;;;;;;22.71;98.41;96588.66;5047061;28;20690;-61
2023/07/30 07:15:52;;;;;;;2.22;2.00;;;;;;;22.78;98.50;96585.91;5055915;28;20211;-61
2023/07/30 07:18:18;;;;;;;2.00;1.90;;;;;;;22.93;100.00;96580.16;5055946;28;20265;-61
2023/07/30 07:20:45;;;;;;;2.22;2.10;;;;;;;22.94;100.00;96574.56;5051999;28;20212;-61
2023/07/30 07:23:13;;;;;;;2.92;2.10;;;;;;;22.67;98.07;96582.06;5047652;28;20203;-63
2023/07/30 07:25:39;;;;;;;2.20;2.10;;;;;;;22.48;97.71;96583.03;5036306;28;20575;-61
2023/07/30 07:28:06;;;;;;;2.10;2.00;;;;;;;22.54;98.84;96592.91;5035590;28;20265;-63
2023/07/30 07:30:35;;;;;;;2.33;2.17;;;;;;;22.72;100.00;96600.28;5035754;28;20238;-63
2023/07/30 07:33:02;;;;;;;1.90;1.75;;;;;;;22.97;99.34;96593.00;5035688;28;20547;-61
2023/07/30 07:35:28;;;;;;;1.77;1.67;;;;;;;23.02;95.93;96595.88;5035658;28;20219;-61
2023/07/30 07:37:54;;;;;;;2.30;2.10;;;;;;;23.27;95.34;96590.44;5041447;28;20211;-62
2023/07/30 07:40:22;;;;;;;2.58;1.88;;;;;;;23.13;94.93;96586.22;5035578;28;20298;-62
2023/07/30 07:42:49;;;;;;;1.67;1.58;;;;;;;23.15;91.35;96593.03;5048477;28;20214;-64
2023/07/30 07:45:15;;;;;;;1.50;1.40;;;;;;;23.21;90.62;96594.84;5035755;28;20204;-61
2023/07/30 07:47:42;;;;;;;1.65;1.55;;;;;;;22.99;90.51;96584.69;5035556;28;20204;-63
2023/07/30 07:50:09;;;;;;;1.80;1.70;;;;;;;23.18;92.69;96592.59;5043072;28;20203;-62
2023/07/30 07:52:35;;;;;;;1.90;1.77;;;;;;;23.64;95.19;96591.28;5041487;28;20212;-63
2023/07/30 07:55:02;;;;;;;2.13;1.75;;;;;;;23.80;89.59;96590.69;5035673;28;20617;-62
2023/07/30 07:57:30;;;;;;;1.60;1.50;;;;;;;23.84;87.28;96588.34;5034888;28;20307;-60
2023/07/30 07:59:57;;;;;;;1.70;1.60;;;;;;;23.95;84.76;96585.69;5035277;28;20686;-61
2023/07/30 08:02:24;;;;;;;2.50;1.50;;;;;;;23.83;87.56;96587.53;5035262;28;20219;-61
2023/07/30 08:04:50;;;;;;;1.50;1.40;;;;;;;23.74;88.93;96587.00;5035562;28;20206;-61
2023/07/30 08:07:17;;;;;;;1.65;1.55;;;;;;;23.92;87.29;96579.91;5035131;28;20212;-62
2023/07/30 08:09:43;;;;;;;1.90;1.80;;;;;;;24.30;88.77;96571.53;5043204;28;20207;-62
2023/07/30 08:12:09;;;;;;;2.58;1.65;;;;;;;24.25;87.66;96564.09;5040149;28;20238;-61
2023/07/30 08:14:37;;;;;;;2.30;1.98;;;;;;;24.26;81.20;96571.16;5035219;28;20687;-62
2023/07/30 08:17:05;;;;;;;1.60;1.50;;;;;;;24.08;82.52;96579.28;5041636;28;20195;-61
2023/07/30 08:19:31;;;;;;;1.98;1.77;;;;;;;24.18;87.77;96577.72;5037781;28;20218;-63
2023/07/30 08:21:59;;;;;;;1.70;1.70;;;;;;;24.33;88.95;96581.88;5041911;28;20562;-62
2023/07/30 08:24:26;;;;;;;2.45;2.35;;;;;;;24.04;82.99;96581.63;5045739;28;20639;-62
2023/07/30 08:26:52;;;;;;;2.30;2.20;;;;;;;24.16;83.68;96579.00;5067265;28;20211;-61
2023/07/30 08:29:19;;;;;;;1.73;1.63;;;;;;;23.93;85.46;96578.88;5035368;28;20553;-62
2023/07/30 08:31:47;;;;;;;1.80;1.70;;;;;;;23.68;84.61;96584.38;5034730;28;20629;-61
2023/07/30 08:34:14;;;;;;;1.70;1.60;;;;;;;23.62;86.70;96591.53;5044828;28;20222;-61
2023/07/30 08:36:40;;;;;;;1.92;1.48;;;;;;;23.19;87.82;96580.75;5043660;28;20269;-60
2023/07/30 08:39:07;;;;;;;2.15;1.65;;;;;;;22.97;87.48;96579.50;5034712;28;20219;-60
2023/07/30 08:41:33;;;;;;;1.77;1.55;;;;;;;22.81;88.23;96578.19;5034452;28;20211;-60
2023/07/30 08:44:00;;;;;;;1.30;1.30;;;;;;;22.65;91.82;96573.34;5035009;28;20256;-61
2023/07/30 08:46:26;;;;;;;1.65;1.55;;;;;;;22.65;94.62;96578.72;5048419;28;20222;-62
2023/07/30 08:48:57;;;;;;;1.80;1.70;;;;;;;22.45;93.32;96577.25;5047535;28;20203;-61
2023/07/30 08:51:24;;;;;;;1.90;1.80;;;;;;;22.44;93.57;96573.72;5055628;28;20203;-62
2023/07/30 08:53:52;;;;;;;2.00;1.90;;;;;;;22.47;96.51;96578.66;5040902;28;20313;-61
2023/07/30 08:56:18;;;;;;;3.05;2.85;;;;;;;22.45;95.42;96578.06;5036255;28;20212;-61
2023/07/30 08:58:45;;;;;;;2.10;1.90;;;;;;;22.44;96.64;96580.97;5034769;28;20204;-60
2023/07/30 09:01:13;;;;;;;1.67;1.58;;;;;;;22.44;96.50;96584.50;5034651;28;20215;-60
2023/07/30 09:03:40;;;;;;;1.98;1.60;;;;;;;22.31;89.82;96571.97;5036663;28;20217;-61
2023/07/30 09:06:08;;;;;;;1.80;1.70;;;;;;;22.25;92.72;96575.50;5035866;28;20207;-60
2023/07/30 09:08:35;;;;;;;1.65;1.55;;;;;;;22.16;93.22;96574.13;5035819;28;20211;-61
2023/07/30 09:11:07;;;;;;;1.90;1.60;;;;;;;21.98;94.44;96584.78;5034419;28;20215;-62
2023/07/30 09:13:37;;;;;;;2.88;1.38;;;;;;;21.93;92.88;96591.88;5033720;28;20215;-59
2023/07/30 09:16:09;;;;;;;1.38;1.27;;;;;;;21.79;92.62;96589.19;5034485;28;20207;-61
2023/07/30 09:18:40;;;;;;;1.92;1.67;;;;;;;21.68;94.38;96587.16;5039813;28;20218;-60
2023/07/30 09:21:08;;;;;;;1.67;1.58;;;;;;;21.75;97.05;96592.56;5040913;28;20207;-61
2023/07/30 09:23:40;;;;;;;1.98;1.52;;;;;;;21.64;94.41;96593.22;5035658;28;20199;-60
2023/07/30 09:26:06;;;;;;;2.00;1.90;;;;;;;21.53;94.72;96600.09;5033901;28;20235;-61
2023/07/30 09:28:33;;;;;;;1.90;1.60;;;;;;;21.45;96.68;96603.00;5035122;28;20222;-60
2023/07/30 09:31:01;;;;;;;1.67;1.63;;;;;;;21.27;98.13;96600.16;5038255;28;20211;-61
2023/07/30 09:33:27;;;;;;;2.33;2.13;;;;;;;21.28;99.20;96608.03;5037496;28;20211;-61
2023/07/30 09:35:55;;;;;;;4.13;1.90;;;;;;;21.24;100.00;96606.78;5040750;28;20231;-60
2023/07/30 09:38:23;;;;;;;1.83;1.73;;;;;;;21.27;100.00;96610.91;5040928;28;20230;-61
2023/07/30 09:40:50;;;;;;;2.00;1.80;;;;;;;21.45;100.00;96619.16;5038274;28;20218;-60
2023/07/30 09:43:16;;;;;;;1.85;1.75;;;;;;;21.60;100.00;96619.72;5037533;28;20226;-60
2023/07/30 09:45:45;;;;;;;1.83;1.73;;;;;;;21.68;100.00;96610.59;5037634;28;20204;-61
2023/07/30 09:48:12;;;;;;;1.80;1.70;;;;;;;22.01;100.00;96613.97;5037994;28;20219;-61
2023/07/30 09:50:39;;;;;;;1.98;1.88;;;;;;;22.27;96.06;96613.00;5038043;28;20658;-61
2023/07/30 09:53:05;;;;;;;1.98;1.85;;;;;;;22.73;97.68;96613.53;5037893;28;20222;-61
2023/07/30 09:55:33;;;;;;;2.17;1.85;;;;;;;23.03;92.41;96607.47;5037668;28;20231;-62
2023/07/30 09:58:00;;;;;;;2.47;1.48;;;;;;;23.11;90.02;96610.72;5037010;28;20207;-61
2023/07/30 10:00:28;;;;;;;1.80;1.70;;;;;;;23.24;93.36;96618.66;5037834;28;20208;-60
2023/07/30 10:02:56;;;;;;;1.90;1.75;;;;;;;23.10;94.40;96619.84;5043337;28;20210;-61
2023/07/30 10:05:25;;;;;;;1.80;1.70;;;;;;;23.07;94.29;96622.16;5045420;28;20215;-61
2023/07/30 10:07:55;;;;;;;1.90;1.80;;;;;;;22.78;94.06;96621.78;5037425;28;20222;-62
2023/07/30 10:10:22;;;;;;;1.75;1.65;;;;;;;22.64;95.11;96620.19;5037508;28;20250;-61
2023/07/30 10:12:51;;;;;;;1.63;1.52;;;;;;;22.56;97.06;96625.06;5036965;28;20218;-60
2023/07/30 10:15:20;;;;;;;1.83;1.73;;;;;;;22.53;97.72;96622.78;5037328;28;20227;-61
2023/07/30 10:17:46;;;;;;;1.88;1.77;;;;;;;22.53;98.12;96620.91;5044240;28;20266;-62
2023/07/30 10:20:21;;;;;;;2.25;1.90;;;;;;;22.46;98.01;96635.50;5044212;28;20199;-61
2023/07/30 10:22:48;;;;;;;2.20;1.70;;;;;;;22.38;98.60;96639.28;5037353;28;20631;-62
2023/07/30 10:25:14;;;;;;;2.03;1.92;;;;;;;22.49;97.02;96638.59;5038257;28;20223;-62
2023/07/30 10:27:43;;;;;;;2.08;1.98;;;;;;;22.44;96.77;96645.66;5036707;28;20207;-61
2023/07/30 10:30:12;;;;;;;1.75;1.65;;;;;;;22.53;95.79;96628.97;5036951;28;20216;-62
2023/07/30 10:32:39;;;;;;;1.83;1.70;;;;;;;22.77;94.30;96635.50;5037167;28;20218;-62
2023/07/30 10:35:06;;;;;;;2.17;1.77;;;;;;;23.07;92.25;96649.13;5036873;28;20235;-60
2023/07/30 10:37:33;;;;;;;1.80;1.70;;;;;;;23.10;89.91;96643.28;5053132;28;20528;-62
2023/07/30 10:39:59;;;;;;;1.92;1.83;;;;;;;23.22;92.42;96655.03;5038551;28;20204;-61
2023/07/30 10:42:34;;;;;;;1.30;1.30;;;;;;;23.09;88.09;96649.75;5036825;28;20208;-61
2023/07/30 10:45:00;;;;;;;1.90;1.80;;;;;;;22.90;91.04;96646.16;5056150;28;20202;-61
2023/07/30 10:47:29;;;;;;;2.65;1.65;;;;;;;22.74;90.40;96658.31;5059252;28;20656;-61
2023/07/30 10:49:56;;;;;;;1.95;1.85;;;;;;;22.66;91.91;96655.03;5063723;28;20265;-60
2023/07/30 10:52:25;;;;;;;2.08;1.98;;;;;;;22.87;91.77;96643.09;5058095;28;20539;-62
2023/07/30 10:55:00;;;;;;;2.28;1.58;;;;;;;22.86;93.45;96646.81;5068812;28;20211;-62
2023/07/30 10:57:30;;;;;;;1.70;1.60;;;;;;;22.75;90.69;96646.50;5079252;28;20175;-64
2023/07/30 10:59:57;;;;;;;1.75;1.65;;;;;;;22.96;93.28;96639.06;5058127;28;20188;-61
2023/07/30 11:02:24;;;;;;;2.72;1.67;;;;;;;23.23;93.05;96635.09;5072244;28;20188;-61
2023/07/30 11:04:52;;;;;;;1.63;1.52;;;;;;;23.48;89.45;96637.78;5068426;28;20231;-61
2023/07/30 11:07:18;;;;;;;1.70;1.60;;;;;;;23.69;85.97;96643.56;5064298;28;20211;-60
2023/07/30 11:09:45;;;;;;;1.60;1.50;;;;;;;23.46;83.63;96645.25;5058317;28;20293;-60
2023/07/30 11:12:11;;;;;;;1.92;1.40;;;;;;;23.65;83.07;96649.63;5057374;28;20207;-61
2023/07/30 11:14:38;;;;;;;1.83;1.73;;;;;;;23.59;84.63;96656.78;5050194;28;20672;-62
2023/07/30 11:17:04;;;;;;;1.90;1.80;;;;;;;23.63;84.19;96640.94;5050507;28;20199;-62
2023/07/30 11:19:33;;;;;;;2.40;1.40;;;;;;;23.83;83.35;96640.72;5055613;28;20210;-62
2023/07/30 11:22:02;;;;;;;1.70;1.60;;;;;;;24.01;84.31;96638.00;5056008;28;20306;-62
2023/07/30 11:24:34;;;;;;;1.70;1.60;;;;;;;23.99;85.31;96634.69;5048151;28;20314;-61
2023/07/30 11:27:02;;;;;;;1.90;1.80;;;;;;;23.87;83.47;96641.91;5055575;28;20213;-61
2023/07/30 11:29:29;;;;;;;1.58;1.42;;;;;;;23.71;82.70;96643.31;5045295;28;20346;-62